sensor_id;sensor_type;location;lat;lon;timestamp;pressure;altitude;pressure_sealevel;temperature
15144;BMP180;7672;50.834;6.286;2023-02-28T00:01:29;100974.72;;;4.73
15144;BMP180;7672;50.834;6.286;2023-02-28T00:03:57;100973.91;;;4.74
15144;BMP180;7672;50.834;6.286;2023-02-28T00:06:24;100985.72;;;4.76
15144;BMP180;7672;50.834;6.286;2023-02-28T00:08:51;100974.09;;;4.77
15144;BMP180;7672;50.834;6.286;2023-02-28T00:11:18;100976.66;;;4.78
15144;BMP180;7672;50.834;6.286;2023-02-28T00:13:46;100969.91;;;4.77
15144;BMP180;7672;50.834;6.286;2023-02-28T00:16:20;100976.66;;;4.78
15144;BMP180;7672;50.834;6.286;2023-02-28T00:18:48;100980.81;;;4.78
15144;BMP180;7672;50.834;6.286;2023-02-28T00:21:17;100969.84;;;4.76
15144;BMP180;7672;50.834;6.286;2023-02-28T00:23:45;100970.63;;;4.75
15144;BMP180;7672;50.834;6.286;2023-02-28T00:26:12;100966.34;;;4.72
15144;BMP180;7672;50.834;6.286;2023-02-28T00:28:39;100975.44;;;4.70
15144;BMP180;7672;50.834;6.286;2023-02-28T00:31:06;100973.66;;;4.68
15144;BMP180;7672;50.834;6.286;2023-02-28T00:33:33;100977.78;;;4.67
15144;BMP180;7672;50.834;6.286;2023-02-28T00:36:09;100976.81;;;4.64
15144;BMP180;7672;50.834;6.286;2023-02-28T00:38:38;100976.63;;;4.61
15144;BMP180;7672;50.834;6.286;2023-02-28T00:41:05;100977.34;;;4.58
15144;BMP180;7672;50.834;6.286;2023-02-28T00:43:34;100973.13;;;4.57
15144;BMP180;7672;50.834;6.286;2023-02-28T00:46:03;100980.50;;;4.54
15144;BMP180;7672;50.834;6.286;2023-02-28T00:48:30;100979.59;;;4.52
15144;BMP180;7672;50.834;6.286;2023-02-28T00:50:57;100980.31;;;4.50
15144;BMP180;7672;50.834;6.286;2023-02-28T00:53:24;100985.22;;;4.48
15144;BMP180;7672;50.834;6.286;2023-02-28T00:55:51;100972.41;;;4.42
15144;BMP180;7672;50.834;6.286;2023-02-28T00:58:18;100979.75;;;4.39
15144;BMP180;7672;50.834;6.286;2023-02-28T01:00:45;100974.47;;;4.33
15144;BMP180;7672;50.834;6.286;2023-02-28T01:03:20;100974.25;;;4.29
15144;BMP180;7672;50.834;6.286;2023-02-28T01:05:47;100966.53;;;4.25
15144;BMP180;7672;50.834;6.286;2023-02-28T01:08:14;100980.66;;;4.24
15144;BMP180;7672;50.834;6.286;2023-02-28T01:10:42;100982.34;;;4.24
15144;BMP180;7672;50.834;6.286;2023-02-28T01:13:09;100973.03;;;4.21
15144;BMP180;7672;50.834;6.286;2023-02-28T01:15:37;100982.97;;;4.20
15144;BMP180;7672;50.834;6.286;2023-02-28T01:18:06;100986.94;;;4.16
15144;BMP180;7672;50.834;6.286;2023-02-28T01:20:32;100991.97;;;4.16
15144;BMP180;7672;50.834;6.286;2023-02-28T01:22:59;100996.91;;;4.15
15144;BMP180;7672;50.834;6.286;2023-02-28T01:25:26;100995.94;;;4.13
15144;BMP180;7672;50.834;6.286;2023-02-28T01:27:53;100990.03;;;4.11
15144;BMP180;7672;50.834;6.286;2023-02-28T01:30:20;100992.53;;;4.11
15144;BMP180;7672;50.834;6.286;2023-02-28T01:32:47;100986.66;;;4.10
15144;BMP180;7672;50.834;6.286;2023-02-28T01:35:13;100993.31;;;4.10
15144;BMP180;7672;50.834;6.286;2023-02-28T01:37:40;100984.78;;;4.06
15144;BMP180;7672;50.834;6.286;2023-02-28T01:40:09;100985.47;;;4.04
15144;BMP180;7672;50.834;6.286;2023-02-28T01:42:36;100987.84;;;4.01
15144;BMP180;7672;50.834;6.286;2023-02-28T01:45:18;100978.47;;;3.97
15144;BMP180;7672;50.834;6.286;2023-02-28T01:47:48;100979.06;;;3.93
15144;BMP180;7672;50.834;6.286;2023-02-28T01:50:22;100981.56;;;3.93
15144;BMP180;7672;50.834;6.286;2023-02-28T01:52:51;100982.22;;;3.89
15144;BMP180;7672;50.834;6.286;2023-02-28T01:55:22;100973.78;;;3.87
15144;BMP180;7672;50.834;6.286;2023-02-28T01:57:56;100973.72;;;3.85
15144;BMP180;7672;50.834;6.286;2023-02-28T02:00:26;100970.28;;;3.83
15144;BMP180;7672;50.834;6.286;2023-02-28T02:03:04;100967.69;;;3.82
15144;BMP180;7672;50.834;6.286;2023-02-28T02:05:32;100964.31;;;3.81
15144;BMP180;7672;50.834;6.286;2023-02-28T02:08:12;100968.47;;;3.81
15144;BMP180;7672;50.834;6.286;2023-02-28T02:10:46;100962.53;;;3.79
15144;BMP180;7672;50.834;6.286;2023-02-28T02:16:52;100962.22;;;3.73
15144;BMP180;7672;50.834;6.286;2023-02-28T02:25:43;100948.94;;;3.58
15144;BMP180;7672;50.834;6.286;2023-02-28T02:40:18;100954.63;;;3.40
15144;BMP180;7672;50.834;6.286;2023-02-28T02:43:26;100952.25;;;3.41
15144;BMP180;7672;50.834;6.286;2023-02-28T02:46:04;100943.78;;;3.39
15144;BMP180;7672;50.834;6.286;2023-02-28T02:48:36;100954.75;;;3.41
15144;BMP180;7672;50.834;6.286;2023-02-28T02:51:13;100945.72;;;3.45
15144;BMP180;7672;50.834;6.286;2023-02-28T02:53:51;100950.09;;;3.49
15144;BMP180;7672;50.834;6.286;2023-02-28T02:56:25;100951.91;;;3.51
15144;BMP180;7672;50.834;6.286;2023-02-28T02:59:00;100949.66;;;3.56
15144;BMP180;7672;50.834;6.286;2023-02-28T03:01:31;100949.78;;;3.59
15144;BMP180;7672;50.834;6.286;2023-02-28T03:04:03;100949.78;;;3.59
15144;BMP180;7672;50.834;6.286;2023-02-28T03:06:31;100944.72;;;3.57
15144;BMP180;7672;50.834;6.286;2023-02-28T03:08:59;100943.00;;;3.56
15144;BMP180;7672;50.834;6.286;2023-02-28T03:11:27;100947.00;;;3.53
15144;BMP180;7672;50.834;6.286;2023-02-28T03:14:37;100940.44;;;3.55
15144;BMP180;7672;50.834;6.286;2023-02-28T03:20:17;100939.34;;;3.50
15144;BMP180;7672;50.834;6.286;2023-02-28T03:23:13;100938.56;;;3.51
15144;BMP180;7672;50.834;6.286;2023-02-28T03:26:02;100931.06;;;3.51
15144;BMP180;7672;50.834;6.286;2023-02-28T03:34:28;100940.34;;;3.53
15144;BMP180;7672;50.834;6.286;2023-02-28T03:37:04;100930.28;;;3.52
15144;BMP180;7672;50.834;6.286;2023-02-28T03:39:43;100939.66;;;3.56
15144;BMP180;7672;50.834;6.286;2023-02-28T03:42:18;100943.94;;;3.58
15144;BMP180;7672;50.834;6.286;2023-02-28T03:44:55;100941.53;;;3.60
15144;BMP180;7672;50.834;6.286;2023-02-28T03:47:33;100932.41;;;3.60
15144;BMP180;7672;50.834;6.286;2023-02-28T03:50:21;100934.97;;;3.62
15144;BMP180;7672;50.834;6.286;2023-02-28T03:53:06;100937.41;;;3.60
15144;BMP180;7672;50.834;6.286;2023-02-28T03:55:45;100935.03;;;3.63
15144;BMP180;7672;50.834;6.286;2023-02-28T03:58:38;100934.28;;;3.64
15144;BMP180;7672;50.834;6.286;2023-02-28T04:01:16;100936.78;;;3.64
15144;BMP180;7672;50.834;6.286;2023-02-28T04:03:46;100942.69;;;3.66
15144;BMP180;7672;50.834;6.286;2023-02-28T04:06:22;100938.41;;;3.64
15144;BMP180;7672;50.834;6.286;2023-02-28T04:08:50;100938.25;;;3.61
15144;BMP180;7672;50.834;6.286;2023-02-28T04:11:36;100937.41;;;3.60
15144;BMP180;7672;50.834;6.286;2023-02-28T04:14:04;100948.94;;;3.58
15144;BMP180;7672;50.834;6.286;2023-02-28T04:16:35;100937.16;;;3.56
15144;BMP180;7672;50.834;6.286;2023-02-28T04:19:04;100937.94;;;3.55
15144;BMP180;7672;50.834;6.286;2023-02-28T04:21:39;100933.69;;;3.54
15144;BMP180;7672;50.834;6.286;2023-02-28T04:24:13;100942.78;;;3.52
15144;BMP180;7672;50.834;6.286;2023-02-28T04:26:46;100942.72;;;3.50
15144;BMP180;7672;50.834;6.286;2023-02-28T04:29:29;100941.75;;;3.48
15144;BMP180;7672;50.834;6.286;2023-02-28T04:31:58;100941.69;;;3.47
15144;BMP180;7672;50.834;6.286;2023-02-28T04:34:28;100939.75;;;3.41
15144;BMP180;7672;50.834;6.286;2023-02-28T04:36:57;100941.22;;;3.38
15144;BMP180;7672;50.834;6.286;2023-02-28T04:39:41;100943.38;;;3.32
15144;BMP180;7672;50.834;6.286;2023-02-28T04:42:09;100944.03;;;3.28
15144;BMP180;7672;50.834;6.286;2023-02-28T04:44:36;100942.91;;;3.23
15144;BMP180;7672;50.834;6.286;2023-02-28T04:47:02;100950.34;;;3.21
15144;BMP180;7672;50.834;6.286;2023-02-28T04:49:29;100954.38;;;3.19
15144;BMP180;7672;50.834;6.286;2023-02-28T04:51:56;100950.88;;;3.16
15144;BMP180;7672;50.834;6.286;2023-02-28T04:54:23;100952.59;;;3.17
15144;BMP180;7672;50.834;6.286;2023-02-28T04:56:50;100956.72;;;3.16
15144;BMP180;7672;50.834;6.286;2023-02-28T04:59:17;100961.03;;;3.19
15144;BMP180;7672;50.834;6.286;2023-02-28T05:01:49;100974.28;;;3.18
15144;BMP180;7672;50.834;6.286;2023-02-28T05:04:16;100960.63;;;3.11
15144;BMP180;7672;50.834;6.286;2023-02-28T05:06:43;100964.59;;;3.08
15144;BMP180;7672;50.834;6.286;2023-02-28T05:09:10;100970.47;;;3.08
15144;BMP180;7672;50.834;6.286;2023-02-28T05:11:40;100967.09;;;3.08
15144;BMP180;7672;50.834;6.286;2023-02-28T05:14:12;100967.09;;;3.08
15144;BMP180;7672;50.834;6.286;2023-02-28T05:16:39;100972.34;;;3.12
15144;BMP180;7672;50.834;6.286;2023-02-28T05:19:06;100969.06;;;3.13
15144;BMP180;7672;50.834;6.286;2023-02-28T05:21:39;100975.00;;;3.15
15144;BMP180;7672;50.834;6.286;2023-02-28T05:24:10;100969.31;;;3.18
15144;BMP180;7672;50.834;6.286;2023-02-28T05:26:42;100978.59;;;3.20
15144;BMP180;7672;50.834;6.286;2023-02-28T05:29:10;100971.88;;;3.19
15144;BMP180;7672;50.834;6.286;2023-02-28T05:31:37;100975.19;;;3.18
15144;BMP180;7672;50.834;6.286;2023-02-28T05:34:05;100973.28;;;3.14
15144;BMP180;7672;50.834;6.286;2023-02-28T05:36:32;100975.69;;;3.13
15144;BMP180;7672;50.834;6.286;2023-02-28T05:38:59;100974.84;;;3.12
15144;BMP180;7672;50.834;6.286;2023-02-28T05:41:26;100976.38;;;3.10
15144;BMP180;7672;50.834;6.286;2023-02-28T05:43:54;100972.78;;;3.05
15144;BMP180;7672;50.834;6.286;2023-02-28T05:46:20;100975.13;;;3.03
15144;BMP180;7672;50.834;6.286;2023-02-28T05:48:48;100970.69;;;2.97
15144;BMP180;7672;50.834;6.286;2023-02-28T05:51:16;100970.56;;;2.96
15144;BMP180;7672;50.834;6.286;2023-02-28T05:53:43;100965.56;;;2.96
15144;BMP180;7672;50.834;6.286;2023-02-28T05:56:10;100963.97;;;2.96
15144;BMP180;7672;50.834;6.286;2023-02-28T05:58:37;100965.69;;;2.97
15144;BMP180;7672;50.834;6.286;2023-02-28T06:01:44;100970.75;;;2.99
15144;BMP180;7672;50.834;6.286;2023-02-28T06:04:17;100969.66;;;2.94
15144;BMP180;7672;50.834;6.286;2023-02-28T06:06:57;100967.75;;;2.90
15144;BMP180;7672;50.834;6.286;2023-02-28T06:09:24;100973.53;;;2.89
15144;BMP180;7672;50.834;6.286;2023-02-28T06:11:51;100979.22;;;2.86
15144;BMP180;7672;50.834;6.286;2023-02-28T06:14:19;100971.47;;;2.82
15144;BMP180;7672;50.834;6.286;2023-02-28T06:16:47;100974.69;;;2.79
15144;BMP180;7672;50.834;6.286;2023-02-28T06:19:14;100982.06;;;2.78
15144;BMP180;7672;50.834;6.286;2023-02-28T06:21:42;100978.66;;;2.76
15144;BMP180;7672;50.834;6.286;2023-02-28T06:24:10;100986.22;;;2.77
15144;BMP180;7672;50.834;6.286;2023-02-28T06:26:37;100986.97;;;2.76
15144;BMP180;7672;50.834;6.286;2023-02-28T06:29:04;100977.75;;;2.75
15144;BMP180;7672;50.834;6.286;2023-02-28T06:31:31;100979.56;;;2.78
15144;BMP180;7672;50.834;6.286;2023-02-28T06:33:58;100986.44;;;2.82
15144;BMP180;7672;50.834;6.286;2023-02-28T06:36:25;100985.06;;;2.87
15144;BMP180;7672;50.834;6.286;2023-02-28T06:38:52;100982.28;;;2.97
15144;BMP180;7672;50.834;6.286;2023-02-28T06:41:26;100988.25;;;3.14
15144;BMP180;7672;50.834;6.286;2023-02-28T06:43:54;100991.19;;;3.38
15144;BMP180;7672;50.834;6.286;2023-02-28T06:46:21;100994.56;;;3.70
15144;BMP180;7672;50.834;6.286;2023-02-28T06:48:49;101003.31;;;4.10
15144;BMP180;7672;50.834;6.286;2023-02-28T06:51:19;101008.13;;;4.56
15144;BMP180;7672;50.834;6.286;2023-02-28T06:53:51;101008.22;;;5.09
15144;BMP180;7672;50.834;6.286;2023-02-28T06:56:18;101007.38;;;5.64
15144;BMP180;7672;50.834;6.286;2023-02-28T06:58:49;101010.22;;;6.28
15144;BMP180;7672;50.834;6.286;2023-02-28T07:01:16;101013.72;;;6.92
15144;BMP180;7672;50.834;6.286;2023-02-28T07:03:45;101006.25;;;7.59
15144;BMP180;7672;50.834;6.286;2023-02-28T07:06:12;101012.03;;;8.27
15144;BMP180;7672;50.834;6.286;2023-02-28T07:08:39;101013.34;;;8.92
15144;BMP180;7672;50.834;6.286;2023-02-28T07:11:07;101012.84;;;9.59
15144;BMP180;7672;50.834;6.286;2023-02-28T07:13:34;101013.94;;;10.27
15144;BMP180;7672;50.834;6.286;2023-02-28T07:16:07;101006.47;;;10.99
15144;BMP180;7672;50.834;6.286;2023-02-28T07:18:37;101014.00;;;11.71
15144;BMP180;7672;50.834;6.286;2023-02-28T07:21:08;101016.19;;;12.41
15144;BMP180;7672;50.834;6.286;2023-02-28T07:23:36;101011.44;;;13.10
15144;BMP180;7672;50.834;6.286;2023-02-28T07:26:06;101009.78;;;13.76
15144;BMP180;7672;50.834;6.286;2023-02-28T07:28:34;101007.06;;;14.35
15144;BMP180;7672;50.834;6.286;2023-02-28T07:31:06;101006.72;;;14.94
15144;BMP180;7672;50.834;6.286;2023-02-28T07:33:34;101012.16;;;15.46
15144;BMP180;7672;50.834;6.286;2023-02-28T07:36:11;101006.38;;;15.90
15144;BMP180;7672;50.834;6.286;2023-02-28T07:38:44;101002.22;;;16.20
15144;BMP180;7672;50.834;6.286;2023-02-28T07:41:16;100999.72;;;16.34
15144;BMP180;7672;50.834;6.286;2023-02-28T07:43:44;101009.06;;;16.42
15144;BMP180;7672;50.834;6.286;2023-02-28T07:46:14;101004.84;;;16.43
15144;BMP180;7672;50.834;6.286;2023-02-28T07:48:42;100994.63;;;16.34
15144;BMP180;7672;50.834;6.286;2023-02-28T07:51:09;101003.06;;;16.24
15144;BMP180;7672;50.834;6.286;2023-02-28T07:53:36;101009.88;;;16.20
15144;BMP180;7672;50.834;6.286;2023-02-28T07:56:03;100994.53;;;16.13
15144;BMP180;7672;50.834;6.286;2023-02-28T07:58:31;101003.91;;;16.12
15144;BMP180;7672;50.834;6.286;2023-02-28T08:01:06;100997.09;;;16.11
15144;BMP180;7672;50.834;6.286;2023-02-28T08:03:33;101008.16;;;16.13
15144;BMP180;7672;50.834;6.286;2023-02-28T08:06:01;100996.25;;;16.14
15144;BMP180;7672;50.834;6.286;2023-02-28T08:08:28;100997.94;;;16.19
15144;BMP180;7672;50.834;6.286;2023-02-28T08:11:03;101002.25;;;16.28
15144;BMP180;7672;50.834;6.286;2023-02-28T08:13:30;100992.91;;;16.33
15144;BMP180;7672;50.834;6.286;2023-02-28T08:15:57;101002.28;;;16.38
15144;BMP180;7672;50.834;6.286;2023-02-28T08:18:24;101004.81;;;16.47
15144;BMP180;7672;50.834;6.286;2023-02-28T08:20:50;101003.97;;;16.51
15144;BMP180;7672;50.834;6.286;2023-02-28T08:23:18;101005.69;;;16.45
15144;BMP180;7672;50.834;6.286;2023-02-28T08:25:52;101005.66;;;16.37
15144;BMP180;7672;50.834;6.286;2023-02-28T08:28:19;100998.81;;;16.20
15144;BMP180;7672;50.834;6.286;2023-02-28T08:30:46;101003.88;;;16.05
15144;BMP180;7672;50.834;6.286;2023-02-28T08:33:13;101007.25;;;15.97
15144;BMP180;7672;50.834;6.286;2023-02-28T08:35:39;101005.53;;;15.91
15144;BMP180;7672;50.834;6.286;2023-02-28T08:38:06;101007.19;;;15.79
15144;BMP180;7672;50.834;6.286;2023-02-28T08:40:33;101008.88;;;15.72
15144;BMP180;7672;50.834;6.286;2023-02-28T08:43:00;101009.75;;;15.74
15144;BMP180;7672;50.834;6.286;2023-02-28T08:45:26;101003.84;;;15.86
15144;BMP180;7672;50.834;6.286;2023-02-28T08:47:56;101008.97;;;16.05
15144;BMP180;7672;50.834;6.286;2023-02-28T08:50:23;101007.28;;;16.14
15144;BMP180;7672;50.834;6.286;2023-02-28T08:52:50;101001.34;;;16.17
15144;BMP180;7672;50.834;6.286;2023-02-28T08:55:16;101006.53;;;16.32
15144;BMP180;7672;50.834;6.286;2023-02-28T08:57:43;101002.28;;;16.43
15144;BMP180;7672;50.834;6.286;2023-02-28T09:00:11;101004.81;;;16.58
15144;BMP180;7672;50.834;6.286;2023-02-28T09:02:40;100999.72;;;16.74
15144;BMP180;7672;50.834;6.286;2023-02-28T09:05:09;101004.00;;;16.62
15144;BMP180;7672;50.834;6.286;2023-02-28T09:07:36;101003.97;;;16.41
15144;BMP180;7672;50.834;6.286;2023-02-28T09:10:03;100999.69;;;16.32
15144;BMP180;7672;50.834;6.286;2023-02-28T09:12:34;101005.66;;;16.37
15144;BMP180;7672;50.834;6.286;2023-02-28T09:15:02;101002.28;;;16.46
15144;BMP180;7672;50.834;6.286;2023-02-28T09:17:29;100996.34;;;16.47
15144;BMP180;7672;50.834;6.286;2023-02-28T09:19:57;101004.81;;;16.37
15144;BMP180;7672;50.834;6.286;2023-02-28T09:22:24;100988.59;;;16.15
15144;BMP180;7672;50.834;6.286;2023-02-28T09:24:51;100986.03;;;16.09
15144;BMP180;7672;50.834;6.286;2023-02-28T09:27:18;100992.88;;;16.13
15144;BMP180;7672;50.834;6.286;2023-02-28T09:29:45;100998.88;;;16.29
15144;BMP180;7672;50.834;6.286;2023-02-28T09:32:12;100982.72;;;16.45
15144;BMP180;7672;50.834;6.286;2023-02-28T09:34:39;100992.06;;;16.56
15144;BMP180;7672;50.834;6.286;2023-02-28T09:37:06;100989.53;;;16.56
15144;BMP180;7672;50.834;6.286;2023-02-28T09:39:32;100981.00;;;16.35
15144;BMP180;7672;50.834;6.286;2023-02-28T09:42:01;100966.47;;;16.13
15144;BMP180;7672;50.834;6.286;2023-02-28T09:44:45;100979.25;;;16.08
15144;BMP180;7672;50.834;6.286;2023-02-28T09:47:30;100968.19;;;16.07
15144;BMP180;7672;50.834;6.286;2023-02-28T09:50:22;100978.38;;;16.08
15144;BMP180;7672;50.834;6.286;2023-02-28T09:52:50;100971.56;;;16.14
15144;BMP180;7672;50.834;6.286;2023-02-28T09:55:33;100979.31;;;16.28
15144;BMP180;7672;50.834;6.286;2023-02-28T09:58:26;100995.44;;;16.27
15144;BMP180;7672;50.834;6.286;2023-02-28T10:01:12;100986.88;;;16.14
15144;BMP180;7672;50.834;6.286;2023-02-28T10:06:53;100993.59;;;15.69
15144;BMP180;7672;50.834;6.286;2023-02-28T10:09:33;100984.94;;;15.41
15144;BMP180;7672;50.834;6.286;2023-02-28T10:12:05;100993.34;;;15.26
15144;BMP180;7672;50.834;6.286;2023-02-28T10:14:35;100994.13;;;15.19
15144;BMP180;7672;50.834;6.286;2023-02-28T10:17:17;100989.81;;;15.09
15144;BMP180;7672;50.834;6.286;2023-02-28T10:22:29;100977.81;;;14.86
15144;BMP180;7672;50.834;6.286;2023-02-28T10:24:59;100979.41;;;14.75
15144;BMP180;7672;50.834;6.286;2023-02-28T10:27:33;101002.28;;;14.71
15144;BMP180;7672;50.834;6.286;2023-02-28T10:30:02;100990.34;;;14.64
15144;BMP180;7672;50.834;6.286;2023-02-28T10:32:33;101003.00;;;14.53
15144;BMP180;7672;50.834;6.286;2023-02-28T10:35:19;100987.66;;;14.44
15144;BMP180;7672;50.834;6.286;2023-02-28T10:37:55;100985.84;;;14.33
15144;BMP180;7672;50.834;6.286;2023-02-28T10:45:30;100992.44;;;13.45
15144;BMP180;7672;50.834;6.286;2023-02-28T10:48:30;100983.88;;;13.36
15144;BMP180;7672;50.834;6.286;2023-02-28T10:50:59;100988.94;;;13.34
15144;BMP180;7672;50.834;6.286;2023-02-28T10:53:35;100985.53;;;13.37
15144;BMP180;7672;50.834;6.286;2023-02-28T10:56:24;100985.59;;;13.40
15144;BMP180;7672;50.834;6.286;2023-02-28T10:58:56;100996.69;;;13.45
15144;BMP180;7672;50.834;6.286;2023-02-28T11:03:52;100977.19;;;13.45
15144;BMP180;7672;50.834;6.286;2023-02-28T11:06:34;100973.09;;;13.55
15144;BMP180;7672;50.834;6.286;2023-02-28T11:09:23;100969.66;;;13.51
15144;BMP180;7672;50.834;6.286;2023-02-28T11:11:51;100971.16;;;13.36
15144;BMP180;7672;50.834;6.286;2023-02-28T11:14:24;100971.00;;;13.25
15144;BMP180;7672;50.834;6.286;2023-02-28T11:16:53;100964.22;;;13.23
15144;BMP180;7672;50.834;6.286;2023-02-28T11:19:34;100976.94;;;13.23
15144;BMP180;7672;50.834;6.286;2023-02-28T11:22:05;100965.03;;;13.20
15144;BMP180;7672;50.834;6.286;2023-02-28T11:24:46;100968.41;;;13.18
15144;BMP180;7672;50.834;6.286;2023-02-28T11:27:41;100963.25;;;13.15
15144;BMP180;7672;50.834;6.286;2023-02-28T11:30:36;100965.75;;;13.12
15144;BMP180;7672;50.834;6.286;2023-02-28T11:36:07;100950.00;;;12.78
15144;BMP180;7672;50.834;6.286;2023-02-28T11:38:36;100957.91;;;12.44
15144;BMP180;7672;50.834;6.286;2023-02-28T11:42:07;100953.22;;;12.16
15144;BMP180;7672;50.834;6.286;2023-02-28T11:53:29;100965.59;;;12.01
15144;BMP180;7672;50.834;6.286;2023-02-28T12:05:11;100949.28;;;11.07
15144;BMP180;7672;50.834;6.286;2023-02-28T12:10:52;100948.75;;;10.83
15144;BMP180;7672;50.834;6.286;2023-02-28T12:13:47;100945.97;;;10.72
15144;BMP180;7672;50.834;6.286;2023-02-28T12:19:27;100942.63;;;10.73
15144;BMP180;7672;50.834;6.286;2023-02-28T12:27:42;100935.06;;;10.73
15144;BMP180;7672;50.834;6.286;2023-02-28T12:30:27;100925.72;;;10.71
15144;BMP180;7672;50.834;6.286;2023-02-28T12:33:08;100934.78;;;10.61
15144;BMP180;7672;50.834;6.286;2023-02-28T12:35:57;100940.31;;;10.47
15144;BMP180;7672;50.834;6.286;2023-02-28T12:38:40;100939.84;;;10.28
15144;BMP180;7672;50.834;6.286;2023-02-28T12:41:20;100939.59;;;10.17
15144;BMP180;7672;50.834;6.286;2023-02-28T12:44:01;100927.50;;;10.06
15144;BMP180;7672;50.834;6.286;2023-02-28T12:46:35;100932.47;;;10.03
15144;BMP180;7672;50.834;6.286;2023-02-28T12:49:16;100930.63;;;9.96
15144;BMP180;7672;50.834;6.286;2023-02-28T12:51:45;100931.31;;;9.92
15144;BMP180;7672;50.834;6.286;2023-02-28T12:54:29;100925.38;;;9.90
15144;BMP180;7672;50.834;6.286;2023-02-28T12:57:28;100928.69;;;9.89
15144;BMP180;7672;50.834;6.286;2023-02-28T13:00:19;100926.09;;;9.86
15144;BMP180;7672;50.834;6.286;2023-02-28T13:03:27;100907.41;;;9.80
15144;BMP180;7672;50.834;6.286;2023-02-28T13:06:32;100917.38;;;9.75
15144;BMP180;7672;50.834;6.286;2023-02-28T13:09:12;100906.38;;;9.72
15144;BMP180;7672;50.834;6.286;2023-02-28T13:11:49;100908.00;;;9.70
15144;BMP180;7672;50.834;6.286;2023-02-28T13:14:36;100897.88;;;9.70
15144;BMP180;7672;50.834;6.286;2023-02-28T13:17:11;100901.22;;;9.69
15144;BMP180;7672;50.834;6.286;2023-02-28T13:22:47;100898.59;;;9.64
15144;BMP180;7672;50.834;6.286;2023-02-28T13:28:11;100896.50;;;9.50
15144;BMP180;7672;50.834;6.286;2023-02-28T13:33:33;100885.31;;;9.40
15144;BMP180;7672;50.834;6.286;2023-02-28T13:38:56;100884.25;;;9.32
15144;BMP180;7672;50.834;6.286;2023-02-28T13:44:22;100888.22;;;9.24
15144;BMP180;7672;50.834;6.286;2023-02-28T13:49:26;100890.53;;;9.17
15144;BMP180;7672;50.834;6.286;2023-02-28T14:06:49;100880.47;;;8.89
15144;BMP180;7672;50.834;6.286;2023-02-28T14:11:56;100866.81;;;8.83
15144;BMP180;7672;50.834;6.286;2023-02-28T14:17:05;100870.72;;;8.72
15144;BMP180;7672;50.834;6.286;2023-02-28T14:19:37;100867.19;;;8.67
15144;BMP180;7672;50.834;6.286;2023-02-28T14:25:34;100863.00;;;8.67
15144;BMP180;7672;50.834;6.286;2023-02-28T14:31:23;100853.09;;;8.73
15144;BMP180;7672;50.834;6.286;2023-02-28T14:34:14;100862.38;;;8.74
15144;BMP180;7672;50.834;6.286;2023-02-28T14:36:44;100854.81;;;8.74
15144;BMP180;7672;50.834;6.286;2023-02-28T14:39:20;100851.53;;;8.77
15144;BMP180;7672;50.834;6.286;2023-02-28T14:41:48;100852.38;;;8.77
15144;BMP180;7672;50.834;6.286;2023-02-28T14:44:22;100844.66;;;8.73
15144;BMP180;7672;50.834;6.286;2023-02-28T14:46:54;100851.34;;;8.71
15144;BMP180;7672;50.834;6.286;2023-02-28T14:49:30;100850.44;;;8.69
15144;BMP180;7672;50.834;6.286;2023-02-28T14:54:38;100841.81;;;8.61
15144;BMP180;7672;50.834;6.286;2023-02-28T14:57:05;100853.41;;;8.56
15144;BMP180;7672;50.834;6.286;2023-02-28T14:59:35;100849.09;;;8.52
15144;BMP180;7672;50.834;6.286;2023-02-28T15:02:24;100846.41;;;8.48
15144;BMP180;7672;50.834;6.286;2023-02-28T15:05:47;100847.19;;;8.45
15144;BMP180;7672;50.834;6.286;2023-02-28T15:08:09;100840.50;;;8.46
15144;BMP180;7672;50.834;6.286;2023-02-28T15:10:38;100834.69;;;8.48
15144;BMP180;7672;50.834;6.286;2023-02-28T15:13:12;100836.41;;;8.49
15144;BMP180;7672;50.834;6.286;2023-02-28T15:15:49;100855.75;;;8.50
15144;BMP180;7672;50.834;6.286;2023-02-28T15:18:52;100839.69;;;8.47
15144;BMP180;7672;50.834;6.286;2023-02-28T15:21:38;100834.69;;;8.48
15144;BMP180;7672;50.834;6.286;2023-02-28T15:27:04;100836.19;;;8.42
15144;BMP180;7672;50.834;6.286;2023-02-28T15:29:51;100841.97;;;8.39
15144;BMP180;7672;50.834;6.286;2023-02-28T15:32:31;100836.06;;;8.39
15144;BMP180;7672;50.834;6.286;2023-02-28T15:35:18;100835.19;;;8.37
15144;BMP180;7672;50.834;6.286;2023-02-28T15:37:53;100837.75;;;8.38
15144;BMP180;7672;50.834;6.286;2023-02-28T15:40:30;100836.94;;;8.39
15144;BMP180;7672;50.834;6.286;2023-02-28T15:43:07;100830.19;;;8.38
15144;BMP180;7672;50.834;6.286;2023-02-28T15:45:40;100833.50;;;8.37
15144;BMP180;7672;50.834;6.286;2023-02-28T15:48:36;100835.16;;;8.35
15144;BMP180;7672;50.834;6.286;2023-02-28T15:51:16;100834.19;;;8.32
15144;BMP180;7672;50.834;6.286;2023-02-28T15:56:51;100840.78;;;8.28
15144;BMP180;7672;50.834;6.286;2023-02-28T15:59:28;100835.63;;;8.24
15144;BMP180;7672;50.834;6.286;2023-02-28T16:02:16;100835.56;;;8.22
15144;BMP180;7672;50.834;6.286;2023-02-28T16:05:12;100848.06;;;8.19
15144;BMP180;7672;50.834;6.286;2023-02-28T16:07:42;100838.78;;;8.18
15144;BMP180;7672;50.834;6.286;2023-02-28T16:10:12;100842.06;;;8.16
15144;BMP180;7672;50.834;6.286;2023-02-28T16:12:41;100844.47;;;8.13
15144;BMP180;7672;50.834;6.286;2023-02-28T16:15:22;100843.56;;;8.11
15144;BMP180;7672;50.834;6.286;2023-02-28T16:17:49;100850.25;;;8.10
15144;BMP180;7672;50.834;6.286;2023-02-28T16:20:24;100857.81;;;8.10
15144;BMP180;7672;50.834;6.286;2023-02-28T16:22:52;100854.50;;;8.11
15144;BMP180;7672;50.834;6.286;2023-02-28T16:25:23;100853.63;;;8.11
15144;BMP180;7672;50.834;6.286;2023-02-28T16:27:54;100857.81;;;8.10
15144;BMP180;7672;50.834;6.286;2023-02-28T16:30:25;100861.94;;;8.08
15144;BMP180;7672;50.834;6.286;2023-02-28T16:32:55;100868.66;;;8.08
15144;BMP180;7672;50.834;6.286;2023-02-28T16:35:23;100859.41;;;8.08
15144;BMP180;7672;50.834;6.286;2023-02-28T16:37:53;100861.94;;;8.08
15144;BMP180;7672;50.834;6.286;2023-02-28T16:40:25;100860.28;;;8.09
15144;BMP180;7672;50.834;6.286;2023-02-28T16:42:59;100864.53;;;8.10
15144;BMP180;7672;50.834;6.286;2023-02-28T16:45:28;100862.75;;;8.07
15144;BMP180;7672;50.834;6.286;2023-02-28T16:47:56;100871.19;;;8.09
15144;BMP180;7672;50.834;6.286;2023-02-28T16:50:29;100866.94;;;8.07
15144;BMP180;7672;50.834;6.286;2023-02-28T16:52:56;100868.59;;;8.06
15144;BMP180;7672;50.834;6.286;2023-02-28T16:55:25;100873.53;;;8.03
15144;BMP180;7672;50.834;6.286;2023-02-28T16:57:56;100877.72;;;8.03
15144;BMP180;7672;50.834;6.286;2023-02-28T17:00:25;100867.56;;;8.00